sensor_id;sensor_type;location;lat;lon;timestamp;P1;durP1;ratioP1;P2;durP2;ratioP2
72275;SDS011;61204;49.980;8.358;2024-02-16T00:01:23;7.32;;;4.22;;
72275;SDS011;61204;49.980;8.358;2024-02-16T00:03:49;6.90;;;4.45;;
72275;SDS011;61204;49.980;8.358;2024-02-16T00:06:14;6.30;;;4.00;;
72275;SDS011;61204;49.980;8.358;2024-02-16T00:08:40;9.45;;;5.10;;
72275;SDS011;61204;49.980;8.358;2024-02-16T00:11:06;7.57;;;3.50;;
72275;SDS011;61204;49.980;8.358;2024-02-16T00:13:36;6.97;;;3.63;;
72275;SDS011;61204;49.980;8.358;2024-02-16T00:16:02;6.25;;;3.92;;
72275;SDS011;61204;49.980;8.358;2024-02-16T00:18:28;7.78;;;3.17;;
72275;SDS011;61204;49.980;8.358;2024-02-16T00:20:54;5.97;;;3.35;;
72275;SDS011;61204;49.980;8.358;2024-02-16T00:23:19;11.57;;;4.30;;
72275;SDS011;61204;49.980;8.358;2024-02-16T00:25:47;7.22;;;3.45;;
72275;SDS011;61204;49.980;8.358;2024-02-16T00:28:13;8.52;;;3.85;;
72275;SDS011;61204;49.980;8.358;2024-02-16T00:30:39;7.68;;;3.60;;
72275;SDS011;61204;49.980;8.358;2024-02-16T00:33:04;11.43;;;3.60;;
72275;SDS011;61204;49.980;8.358;2024-02-16T00:35:30;9.25;;;4.20;;
72275;SDS011;61204;49.980;8.358;2024-02-16T00:37:58;10.38;;;3.28;;
72275;SDS011;61204;49.980;8.358;2024-02-16T00:40:27;9.57;;;3.33;;
72275;SDS011;61204;49.980;8.358;2024-02-16T00:42:52;9.88;;;3.33;;
72275;SDS011;61204;49.980;8.358;2024-02-16T00:45:21;7.82;;;3.60;;
72275;SDS011;61204;49.980;8.358;2024-02-16T00:47:46;7.45;;;3.30;;
72275;SDS011;61204;49.980;8.358;2024-02-16T00:50:13;5.55;;;3.20;;
72275;SDS011;61204;49.980;8.358;2024-02-16T00:52:40;6.70;;;3.58;;
72275;SDS011;61204;49.980;8.358;2024-02-16T00:55:06;5.00;;;3.00;;
72275;SDS011;61204;49.980;8.358;2024-02-16T00:57:32;6.05;;;3.42;;
72275;SDS011;61204;49.980;8.358;2024-02-16T00:59:59;8.20;;;3.25;;
72275;SDS011;61204;49.980;8.358;2024-02-16T01:02:28;7.07;;;3.38;;
72275;SDS011;61204;49.980;8.358;2024-02-16T01:04:54;9.73;;;3.75;;
72275;SDS011;61204;49.980;8.358;2024-02-16T01:07:26;5.07;;;3.10;;
72275;SDS011;61204;49.980;8.358;2024-02-16T01:09:53;6.50;;;4.20;;
72275;SDS011;61204;49.980;8.358;2024-02-16T01:12:21;5.55;;;3.53;;
72275;SDS011;61204;49.980;8.358;2024-02-16T01:14:47;7.30;;;3.83;;
72275;SDS011;61204;49.980;8.358;2024-02-16T01:17:13;8.23;;;3.95;;
72275;SDS011;61204;49.980;8.358;2024-02-16T01:19:38;4.88;;;3.22;;
72275;SDS011;61204;49.980;8.358;2024-02-16T01:22:06;5.28;;;2.78;;
72275;SDS011;61204;49.980;8.358;2024-02-16T01:24:32;4.88;;;3.15;;
72275;SDS011;61204;49.980;8.358;2024-02-16T01:26:57;6.70;;;3.42;;
72275;SDS011;61204;49.980;8.358;2024-02-16T01:29:23;9.55;;;3.65;;
72275;SDS011;61204;49.980;8.358;2024-02-16T01:31:48;7.63;;;3.78;;
72275;SDS011;61204;49.980;8.358;2024-02-16T01:34:16;9.98;;;4.38;;
72275;SDS011;61204;49.980;8.358;2024-02-16T01:36:42;7.18;;;3.65;;
72275;SDS011;61204;49.980;8.358;2024-02-16T01:39:07;8.20;;;3.95;;
72275;SDS011;61204;49.980;8.358;2024-02-16T01:41:33;7.85;;;3.50;;
72275;SDS011;61204;49.980;8.358;2024-02-16T01:43:59;9.55;;;5.22;;
72275;SDS011;61204;49.980;8.358;2024-02-16T01:46:25;11.00;;;4.00;;
72275;SDS011;61204;49.980;8.358;2024-02-16T01:48:51;6.95;;;3.28;;
72275;SDS011;61204;49.980;8.358;2024-02-16T01:51:18;6.50;;;3.58;;
72275;SDS011;61204;49.980;8.358;2024-02-16T01:53:44;6.25;;;3.63;;
72275;SDS011;61204;49.980;8.358;2024-02-16T01:56:11;7.13;;;3.45;;
72275;SDS011;61204;49.980;8.358;2024-02-16T01:58:36;6.70;;;3.83;;
72275;SDS011;61204;49.980;8.358;2024-02-16T02:01:02;5.88;;;3.20;;
72275;SDS011;61204;49.980;8.358;2024-02-16T02:03:29;8.20;;;3.55;;
72275;SDS011;61204;49.980;8.358;2024-02-16T02:05:56;7.45;;;3.88;;
72275;SDS011;61204;49.980;8.358;2024-02-16T02:08:22;9.65;;;4.05;;
72275;SDS011;61204;49.980;8.358;2024-02-16T02:10:49;7.03;;;3.58;;
72275;SDS011;61204;49.980;8.358;2024-02-16T02:13:14;4.70;;;3.65;;
72275;SDS011;61204;49.980;8.358;2024-02-16T02:15:40;8.77;;;3.88;;
72275;SDS011;61204;49.980;8.358;2024-02-16T02:18:06;6.55;;;3.67;;
72275;SDS011;61204;49.980;8.358;2024-02-16T02:20:32;6.30;;;3.35;;
72275;SDS011;61204;49.980;8.358;2024-02-16T02:22:59;5.95;;;3.42;;
72275;SDS011;61204;49.980;8.358;2024-02-16T02:25:25;8.75;;;3.28;;
72275;SDS011;61204;49.980;8.358;2024-02-16T02:27:53;9.23;;;3.60;;
72275;SDS011;61204;49.980;8.358;2024-02-16T02:30:19;8.48;;;3.83;;
72275;SDS011;61204;49.980;8.358;2024-02-16T02:32:46;8.35;;;4.20;;
72275;SDS011;61204;49.980;8.358;2024-02-16T02:35:15;6.63;;;3.83;;
72275;SDS011;61204;49.980;8.358;2024-02-16T02:37:43;7.43;;;3.60;;
72275;SDS011;61204;49.980;8.358;2024-02-16T02:40:08;7.10;;;4.43;;
72275;SDS011;61204;49.980;8.358;2024-02-16T02:42:35;7.95;;;4.13;;
72275;SDS011;61204;49.980;8.358;2024-02-16T02:45:01;8.07;;;4.18;;
72275;SDS011;61204;49.980;8.358;2024-02-16T02:47:30;5.38;;;3.67;;
72275;SDS011;61204;49.980;8.358;2024-02-16T02:49:57;5.78;;;4.07;;
72275;SDS011;61204;49.980;8.358;2024-02-16T02:52:22;6.63;;;4.30;;
72275;SDS011;61204;49.980;8.358;2024-02-16T02:54:48;8.98;;;3.60;;
72275;SDS011;61204;49.980;8.358;2024-02-16T02:57:14;6.72;;;3.63;;
72275;SDS011;61204;49.980;8.358;2024-02-16T02:59:39;10.30;;;4.88;;
72275;SDS011;61204;49.980;8.358;2024-02-16T03:02:05;8.10;;;4.80;;
72275;SDS011;61204;49.980;8.358;2024-02-16T03:04:30;10.18;;;4.55;;
72275;SDS011;61204;49.980;8.358;2024-02-16T03:06:58;8.00;;;4.10;;
72275;SDS011;61204;49.980;8.358;2024-02-16T03:09:24;7.03;;;4.70;;
72275;SDS011;61204;49.980;8.358;2024-02-16T03:11:49;10.60;;;4.57;;
72275;SDS011;61204;49.980;8.358;2024-02-16T03:14:16;9.38;;;4.97;;
72275;SDS011;61204;49.980;8.358;2024-02-16T03:16:45;6.63;;;4.13;;
72275;SDS011;61204;49.980;8.358;2024-02-16T03:19:13;7.28;;;4.47;;
72275;SDS011;61204;49.980;8.358;2024-02-16T03:21:38;7.55;;;4.47;;
72275;SDS011;61204;49.980;8.358;2024-02-16T03:24:04;7.90;;;4.55;;
72275;SDS011;61204;49.980;8.358;2024-02-16T03:26:30;8.80;;;4.47;;
72275;SDS011;61204;49.980;8.358;2024-02-16T03:28:57;10.45;;;4.28;;
72275;SDS011;61204;49.980;8.358;2024-02-16T03:31:23;8.23;;;4.70;;
72275;SDS011;61204;49.980;8.358;2024-02-16T03:33:52;10.70;;;4.72;;
72275;SDS011;61204;49.980;8.358;2024-02-16T03:36:18;6.80;;;4.32;;
72275;SDS011;61204;49.980;8.358;2024-02-16T03:38:45;7.13;;;4.43;;
72275;SDS011;61204;49.980;8.358;2024-02-16T03:41:20;7.82;;;4.53;;
72275;SDS011;61204;49.980;8.358;2024-02-16T03:43:50;6.45;;;4.72;;
72275;SDS011;61204;49.980;8.358;2024-02-16T03:46:16;9.95;;;4.53;;
72275;SDS011;61204;49.980;8.358;2024-02-16T03:48:42;10.50;;;4.68;;
72275;SDS011;61204;49.980;8.358;2024-02-16T03:51:09;8.18;;;4.85;;
72275;SDS011;61204;49.980;8.358;2024-02-16T03:53:35;9.93;;;4.47;;
72275;SDS011;61204;49.980;8.358;2024-02-16T03:56:00;7.63;;;4.60;;
72275;SDS011;61204;49.980;8.358;2024-02-16T03:58:26;7.25;;;4.63;;
72275;SDS011;61204;49.980;8.358;2024-02-16T04:00:52;9.43;;;4.72;;
72275;SDS011;61204;49.980;8.358;2024-02-16T04:03:18;7.70;;;4.55;;
72275;SDS011;61204;49.980;8.358;2024-02-16T04:05:44;9.10;;;4.88;;
72275;SDS011;61204;49.980;8.358;2024-02-16T04:08:09;7.57;;;4.80;;
72275;SDS011;61204;49.980;8.358;2024-02-16T04:10:35;8.13;;;4.43;;
72275;SDS011;61204;49.980;8.358;2024-02-16T04:13:01;9.10;;;4.53;;
72275;SDS011;61204;49.980;8.358;2024-02-16T04:15:27;7.00;;;4.32;;
72275;SDS011;61204;49.980;8.358;2024-02-16T04:17:54;8.30;;;4.80;;
72275;SDS011;61204;49.980;8.358;2024-02-16T04:20:22;6.95;;;4.93;;
72275;SDS011;61204;49.980;8.358;2024-02-16T04:22:49;9.70;;;4.85;;
72275;SDS011;61204;49.980;8.358;2024-02-16T04:25:15;9.57;;;4.85;;
72275;SDS011;61204;49.980;8.358;2024-02-16T04:27:41;8.93;;;4.75;;
72275;SDS011;61204;49.980;8.358;2024-02-16T04:30:09;7.70;;;4.78;;
72275;SDS011;61204;49.980;8.358;2024-02-16T04:32:35;11.18;;;4.88;;
72275;SDS011;61204;49.980;8.358;2024-02-16T04:35:00;9.38;;;5.40;;
72275;SDS011;61204;49.980;8.358;2024-02-16T04:37:26;8.35;;;5.10;;
72275;SDS011;61204;49.980;8.358;2024-02-16T04:39:51;8.10;;;4.75;;
72275;SDS011;61204;49.980;8.358;2024-02-16T04:42:17;8.85;;;5.88;;
72275;SDS011;61204;49.980;8.358;2024-02-16T04:44:43;8.68;;;5.18;;
72275;SDS011;61204;49.980;8.358;2024-02-16T04:47:09;8.65;;;5.28;;
72275;SDS011;61204;49.980;8.358;2024-02-16T04:49:35;10.52;;;4.88;;
72275;SDS011;61204;49.980;8.358;2024-02-16T04:52:01;9.38;;;5.85;;
72275;SDS011;61204;49.980;8.358;2024-02-16T04:54:28;13.40;;;5.38;;
72275;SDS011;61204;49.980;8.358;2024-02-16T04:56:57;8.55;;;5.10;;
72275;SDS011;61204;49.980;8.358;2024-02-16T04:59:23;11.35;;;5.93;;
72275;SDS011;61204;49.980;8.358;2024-02-16T05:01:49;8.48;;;5.30;;
72275;SDS011;61204;49.980;8.358;2024-02-16T05:04:14;10.32;;;5.93;;
72275;SDS011;61204;49.980;8.358;2024-02-16T05:06:44;10.73;;;5.93;;
72275;SDS011;61204;49.980;8.358;2024-02-16T05:09:13;8.95;;;6.07;;
72275;SDS011;61204;49.980;8.358;2024-02-16T05:11:42;10.63;;;5.75;;
72275;SDS011;61204;49.980;8.358;2024-02-16T05:14:10;9.45;;;5.93;;
72275;SDS011;61204;49.980;8.358;2024-02-16T05:16:43;13.80;;;6.00;;
72275;SDS011;61204;49.980;8.358;2024-02-16T05:19:09;9.95;;;6.32;;
72275;SDS011;61204;49.980;8.358;2024-02-16T05:21:35;9.23;;;5.70;;
72275;SDS011;61204;49.980;8.358;2024-02-16T05:24:01;11.25;;;6.80;;
72275;SDS011;61204;49.980;8.358;2024-02-16T05:26:27;11.98;;;6.32;;
72275;SDS011;61204;49.980;8.358;2024-02-16T05:28:53;10.68;;;6.07;;
72275;SDS011;61204;49.980;8.358;2024-02-16T05:31:19;10.30;;;6.07;;
72275;SDS011;61204;49.980;8.358;2024-02-16T05:33:48;16.25;;;6.70;;
72275;SDS011;61204;49.980;8.358;2024-02-16T05:36:16;9.10;;;5.93;;
72275;SDS011;61204;49.980;8.358;2024-02-16T05:38:45;9.85;;;5.72;;
72275;SDS011;61204;49.980;8.358;2024-02-16T05:41:15;8.95;;;5.93;;
72275;SDS011;61204;49.980;8.358;2024-02-16T05:43:43;10.40;;;5.82;;
72275;SDS011;61204;49.980;8.358;2024-02-16T05:46:15;8.32;;;5.47;;
72275;SDS011;61204;49.980;8.358;2024-02-16T05:48:43;12.80;;;6.13;;
72275;SDS011;61204;49.980;8.358;2024-02-16T05:51:12;8.00;;;6.00;;
72275;SDS011;61204;49.980;8.358;2024-02-16T05:53:42;8.40;;;5.72;;
72275;SDS011;61204;49.980;8.358;2024-02-16T05:56:07;11.52;;;6.30;;
72275;SDS011;61204;49.980;8.358;2024-02-16T05:58:35;15.98;;;9.85;;
72275;SDS011;61204;49.980;8.358;2024-02-16T06:01:00;12.88;;;7.05;;
72275;SDS011;61204;49.980;8.358;2024-02-16T06:03:28;12.68;;;6.97;;
72275;SDS011;61204;49.980;8.358;2024-02-16T06:05:53;11.73;;;6.13;;
72275;SDS011;61204;49.980;8.358;2024-02-16T06:08:19;13.13;;;6.55;;
72275;SDS011;61204;49.980;8.358;2024-02-16T06:10:45;9.93;;;6.30;;
72275;SDS011;61204;49.980;8.358;2024-02-16T06:13:18;12.68;;;7.10;;
72275;SDS011;61204;49.980;8.358;2024-02-16T06:15:46;14.45;;;6.60;;
72275;SDS011;61204;49.980;8.358;2024-02-16T06:18:12;14.07;;;6.70;;
72275;SDS011;61204;49.980;8.358;2024-02-16T06:20:37;12.10;;;6.72;;
72275;SDS011;61204;49.980;8.358;2024-02-16T06:23:03;12.23;;;6.68;;
72275;SDS011;61204;49.980;8.358;2024-02-16T06:25:33;9.98;;;6.38;;
72275;SDS011;61204;49.980;8.358;2024-02-16T06:27:59;8.60;;;5.75;;
72275;SDS011;61204;49.980;8.358;2024-02-16T06:30:25;11.50;;;6.45;;
72275;SDS011;61204;49.980;8.358;2024-02-16T06:32:50;12.30;;;6.35;;
72275;SDS011;61204;49.980;8.358;2024-02-16T06:35:20;10.75;;;6.80;;
72275;SDS011;61204;49.980;8.358;2024-02-16T06:37:45;9.70;;;6.55;;
72275;SDS011;61204;49.980;8.358;2024-02-16T06:40:11;12.80;;;7.65;;
72275;SDS011;61204;49.980;8.358;2024-02-16T06:42:37;11.18;;;6.88;;
72275;SDS011;61204;49.980;8.358;2024-02-16T06:45:03;11.25;;;6.95;;
72275;SDS011;61204;49.980;8.358;2024-02-16T06:47:33;10.20;;;6.68;;
72275;SDS011;61204;49.980;8.358;2024-02-16T06:49:59;11.65;;;7.10;;
72275;SDS011;61204;49.980;8.358;2024-02-16T06:52:24;12.18;;;7.22;;
72275;SDS011;61204;49.980;8.358;2024-02-16T06:54:52;11.30;;;7.18;;
72275;SDS011;61204;49.980;8.358;2024-02-16T06:57:18;11.88;;;7.07;;
72275;SDS011;61204;49.980;8.358;2024-02-16T06:59:45;10.00;;;6.90;;
72275;SDS011;61204;49.980;8.358;2024-02-16T07:02:11;9.73;;;6.25;;
72275;SDS011;61204;49.980;8.358;2024-02-16T07:04:41;9.57;;;6.10;;
72275;SDS011;61204;49.980;8.358;2024-02-16T07:07:07;10.27;;;6.32;;
72275;SDS011;61204;49.980;8.358;2024-02-16T07:09:33;11.63;;;6.80;;
72275;SDS011;61204;49.980;8.358;2024-02-16T07:12:00;9.23;;;6.20;;
72275;SDS011;61204;49.980;8.358;2024-02-16T07:14:26;15.38;;;7.03;;
72275;SDS011;61204;49.980;8.358;2024-02-16T07:16:51;9.77;;;6.40;;
72275;SDS011;61204;49.980;8.358;2024-02-16T07:19:17;9.15;;;5.90;;
72275;SDS011;61204;49.980;8.358;2024-02-16T07:21:47;11.68;;;5.85;;
72275;SDS011;61204;49.980;8.358;2024-02-16T07:24:13;10.75;;;7.15;;
72275;SDS011;61204;49.980;8.358;2024-02-16T07:26:40;7.57;;;5.75;;
72275;SDS011;61204;49.980;8.358;2024-02-16T07:29:07;8.38;;;5.93;;
72275;SDS011;61204;49.980;8.358;2024-02-16T07:31:33;11.10;;;6.28;;
72275;SDS011;61204;49.980;8.358;2024-02-16T07:34:00;11.65;;;6.72;;
72275;SDS011;61204;49.980;8.358;2024-02-16T07:36:29;10.48;;;6.60;;
72275;SDS011;61204;49.980;8.358;2024-02-16T07:38:59;8.85;;;5.43;;
72275;SDS011;61204;49.980;8.358;2024-02-16T07:41:24;10.40;;;5.85;;
72275;SDS011;61204;49.980;8.358;2024-02-16T07:43:50;9.50;;;5.18;;
72275;SDS011;61204;49.980;8.358;2024-02-16T07:46:16;9.18;;;6.22;;
72275;SDS011;61204;49.980;8.358;2024-02-16T07:48:43;9.05;;;5.68;;
72275;SDS011;61204;49.980;8.358;2024-02-16T07:51:08;11.52;;;5.38;;
72275;SDS011;61204;49.980;8.358;2024-02-16T07:53:34;8.80;;;5.47;;
72275;SDS011;61204;49.980;8.358;2024-02-16T07:56:01;10.75;;;5.75;;
72275;SDS011;61204;49.980;8.358;2024-02-16T07:58:26;12.00;;;5.53;;
72275;SDS011;61204;49.980;8.358;2024-02-16T08:00:52;12.75;;;6.43;;
72275;SDS011;61204;49.980;8.358;2024-02-16T08:03:20;11.85;;;5.65;;
72275;SDS011;61204;49.980;8.358;2024-02-16T08:05:48;8.35;;;5.03;;
72275;SDS011;61204;49.980;8.358;2024-02-16T08:08:13;8.93;;;5.82;;
72275;SDS011;61204;49.980;8.358;2024-02-16T08:10:39;8.75;;;6.15;;
72275;SDS011;61204;49.980;8.358;2024-02-16T08:13:04;9.48;;;5.15;;
72275;SDS011;61204;49.980;8.358;2024-02-16T08:15:32;8.80;;;5.45;;
72275;SDS011;61204;49.980;8.358;2024-02-16T08:18:00;10.25;;;5.32;;
72275;SDS011;61204;49.980;8.358;2024-02-16T08:20:28;12.32;;;5.80;;
72275;SDS011;61204;49.980;8.358;2024-02-16T08:22:55;9.00;;;6.45;;
72275;SDS011;61204;49.980;8.358;2024-02-16T08:25:21;10.25;;;6.18;;
72275;SDS011;61204;49.980;8.358;2024-02-16T08:27:47;10.07;;;5.90;;
72275;SDS011;61204;49.980;8.358;2024-02-16T08:30:14;9.00;;;6.20;;
72275;SDS011;61204;49.980;8.358;2024-02-16T08:32:40;8.10;;;5.55;;
72275;SDS011;61204;49.980;8.358;2024-02-16T08:35:06;8.98;;;5.85;;
72275;SDS011;61204;49.980;8.358;2024-02-16T08:37:34;7.50;;;5.97;;
72275;SDS011;61204;49.980;8.358;2024-02-16T08:40:00;9.35;;;6.00;;
72275;SDS011;61204;49.980;8.358;2024-02-16T08:42:26;9.45;;;6.07;;
72275;SDS011;61204;49.980;8.358;2024-02-16T08:44:52;9.93;;;5.60;;
72275;SDS011;61204;49.980;8.358;2024-02-16T08:47:17;9.57;;;4.90;;
72275;SDS011;61204;49.980;8.358;2024-02-16T08:49:43;8.38;;;5.10;;
72275;SDS011;61204;49.980;8.358;2024-02-16T08:52:13;8.55;;;5.38;;
72275;SDS011;61204;49.980;8.358;2024-02-16T08:54:44;8.02;;;5.32;;
72275;SDS011;61204;49.980;8.358;2024-02-16T08:57:10;8.50;;;5.45;;
72275;SDS011;61204;49.980;8.358;2024-02-16T08:59:35;8.38;;;5.70;;
72275;SDS011;61204;49.980;8.358;2024-02-16T09:02:01;7.65;;;5.43;;
72275;SDS011;61204;49.980;8.358;2024-02-16T09:04:31;9.93;;;5.57;;
72275;SDS011;61204;49.980;8.358;2024-02-16T09:06:59;8.85;;;5.47;;
72275;SDS011;61204;49.980;8.358;2024-02-16T09:09:25;10.40;;;5.82;;
72275;SDS011;61204;49.980;8.358;2024-02-16T09:11:53;9.73;;;5.68;;
72275;SDS011;61204;49.980;8.358;2024-02-16T09:14:19;10.98;;;6.72;;
72275;SDS011;61204;49.980;8.358;2024-02-16T09:16:50;6.43;;;4.95;;
72275;SDS011;61204;49.980;8.358;2024-02-16T09:19:19;7.30;;;4.63;;
72275;SDS011;61204;49.980;8.358;2024-02-16T09:21:48;8.63;;;5.28;;
72275;SDS011;61204;49.980;8.358;2024-02-16T09:24:19;8.38;;;5.55;;
72275;SDS011;61204;49.980;8.358;2024-02-16T09:26:45;7.13;;;5.43;;
72275;SDS011;61204;49.980;8.358;2024-02-16T09:29:11;7.43;;;5.03;;
72275;SDS011;61204;49.980;8.358;2024-02-16T09:31:39;7.25;;;5.18;;
72275;SDS011;61204;49.980;8.358;2024-02-16T09:34:06;8.85;;;6.10;;
72275;SDS011;61204;49.980;8.358;2024-02-16T09:36:32;10.70;;;5.80;;
72275;SDS011;61204;49.980;8.358;2024-02-16T09:38:57;10.48;;;5.95;;
72275;SDS011;61204;49.980;8.358;2024-02-16T09:41:23;8.77;;;5.70;;
72275;SDS011;61204;49.980;8.358;2024-02-16T09:43:49;7.53;;;5.20;;
72275;SDS011;61204;49.980;8.358;2024-02-16T09:46:18;12.23;;;6.20;;
72275;SDS011;61204;49.980;8.358;2024-02-16T09:48:46;7.20;;;5.03;;
72275;SDS011;61204;49.980;8.358;2024-02-16T09:51:17;7.75;;;5.55;;
72275;SDS011;61204;49.980;8.358;2024-02-16T09:53:44;10.43;;;6.18;;
72275;SDS011;61204;49.980;8.358;2024-02-16T09:56:20;8.50;;;5.40;;
72275;SDS011;61204;49.980;8.358;2024-02-16T09:58:47;9.13;;;5.60;;
72275;SDS011;61204;49.980;8.358;2024-02-16T10:01:19;9.63;;;5.75;;
72275;SDS011;61204;49.980;8.358;2024-02-16T10:03:46;7.53;;;5.47;;
72275;SDS011;61204;49.980;8.358;2024-02-16T10:06:13;7.75;;;5.35;;
72275;SDS011;61204;49.980;8.358;2024-02-16T10:11:19;10.13;;;5.68;;
72275;SDS011;61204;49.980;8.358;2024-02-16T10:14:02;9.65;;;5.05;;
72275;SDS011;61204;49.980;8.358;2024-02-16T10:16:33;7.65;;;5.10;;
72275;SDS011;61204;49.980;8.358;2024-02-16T10:19:06;9.55;;;5.65;;
72275;SDS011;61204;49.980;8.358;2024-02-16T10:21:36;10.48;;;6.43;;
72275;SDS011;61204;49.980;8.358;2024-02-16T10:26:36;6.60;;;4.95;;
72275;SDS011;61204;49.980;8.358;2024-02-16T10:29:09;9.30;;;5.18;;
72275;SDS011;61204;49.980;8.358;2024-02-16T10:31:36;9.50;;;5.65;;
72275;SDS011;61204;49.980;8.358;2024-02-16T10:34:03;10.73;;;5.43;;
72275;SDS011;61204;49.980;8.358;2024-02-16T10:36:34;9.02;;;5.18;;
72275;SDS011;61204;49.980;8.358;2024-02-16T10:39:03;9.93;;;5.43;;
72275;SDS011;61204;49.980;8.358;2024-02-16T10:41:34;11.43;;;5.95;;
72275;SDS011;61204;49.980;8.358;2024-02-16T10:44:03;6.68;;;5.20;;
72275;SDS011;61204;49.980;8.358;2024-02-16T10:46:31;6.28;;;4.95;;
72275;SDS011;61204;49.980;8.358;2024-02-16T10:48:58;9.30;;;5.93;;
72275;SDS011;61204;49.980;8.358;2024-02-16T10:51:37;9.65;;;5.20;;
72275;SDS011;61204;49.980;8.358;2024-02-16T10:54:11;9.15;;;4.97;;
72275;SDS011;61204;49.980;8.358;2024-02-16T10:56:47;11.63;;;5.25;;
72275;SDS011;61204;49.980;8.358;2024-02-16T10:59:13;14.18;;;5.20;;
72275;SDS011;61204;49.980;8.358;2024-02-16T11:01:42;10.50;;;5.88;;
72275;SDS011;61204;49.980;8.358;2024-02-16T11:04:21;7.03;;;4.75;;
72275;SDS011;61204;49.980;8.358;2024-02-16T11:06:52;9.77;;;5.68;;
72275;SDS011;61204;49.980;8.358;2024-02-16T11:11:53;6.40;;;4.63;;
72275;SDS011;61204;49.980;8.358;2024-02-16T11:14:24;7.25;;;4.72;;
72275;SDS011;61204;49.980;8.358;2024-02-16T11:16:59;8.13;;;4.90;;
72275;SDS011;61204;49.980;8.358;2024-02-16T11:19:26;6.65;;;5.13;;
72275;SDS011;61204;49.980;8.358;2024-02-16T11:21:58;8.32;;;4.82;;
72275;SDS011;61204;49.980;8.358;2024-02-16T11:24:30;7.70;;;4.97;;
72275;SDS011;61204;49.980;8.358;2024-02-16T11:27:07;7.80;;;4.80;;
72275;SDS011;61204;49.980;8.358;2024-02-16T11:29:35;5.83;;;4.40;;
72275;SDS011;61204;49.980;8.358;2024-02-16T11:32:03;7.43;;;4.57;;
72275;SDS011;61204;49.980;8.358;2024-02-16T11:34:31;7.90;;;4.50;;
72275;SDS011;61204;49.980;8.358;2024-02-16T11:36:59;8.32;;;5.00;;
72275;SDS011;61204;49.980;8.358;2024-02-16T11:39:32;6.30;;;4.40;;
72275;SDS011;61204;49.980;8.358;2024-02-16T11:44:33;8.52;;;4.43;;
72275;SDS011;61204;49.980;8.358;2024-02-16T11:47:01;6.95;;;4.20;;
72275;SDS011;61204;49.980;8.358;2024-02-16T11:49:29;10.00;;;4.20;;
72275;SDS011;61204;49.980;8.358;2024-02-16T11:51:55;8.98;;;4.25;;
72275;SDS011;61204;49.980;8.358;2024-02-16T11:54:21;8.60;;;3.67;;
72275;SDS011;61204;49.980;8.358;2024-02-16T11:56:48;7.38;;;4.60;;
72275;SDS011;61204;49.980;8.358;2024-02-16T11:59:17;9.20;;;3.78;;
72275;SDS011;61204;49.980;8.358;2024-02-16T12:01:51;9.63;;;4.18;;
72275;SDS011;61204;49.980;8.358;2024-02-16T12:04:24;4.70;;;3.63;;
72275;SDS011;61204;49.980;8.358;2024-02-16T12:09:26;9.27;;;3.20;;
72275;SDS011;61204;49.980;8.358;2024-02-16T12:11:54;7.05;;;3.30;;
72275;SDS011;61204;49.980;8.358;2024-02-16T12:14:23;6.85;;;3.08;;
72275;SDS011;61204;49.980;8.358;2024-02-16T12:19:20;6.10;;;3.50;;
72275;SDS011;61204;49.980;8.358;2024-02-16T12:21:53;8.20;;;2.92;;
72275;SDS011;61204;49.980;8.358;2024-02-16T12:24:23;9.13;;;3.15;;
72275;SDS011;61204;49.980;8.358;2024-02-16T12:26:50;8.40;;;2.63;;
72275;SDS011;61204;49.980;8.358;2024-02-16T12:29:16;3.63;;;2.50;;
72275;SDS011;61204;49.980;8.358;2024-02-16T12:31:42;4.15;;;2.30;;
72275;SDS011;61204;49.980;8.358;2024-02-16T12:34:14;7.70;;;2.30;;
72275;SDS011;61204;49.980;8.358;2024-02-16T12:36:40;3.40;;;2.58;;
72275;SDS011;61204;49.980;8.358;2024-02-16T12:39:08;6.28;;;2.20;;
72275;SDS011;61204;49.980;8.358;2024-02-16T12:41:37;4.18;;;1.67;;
72275;SDS011;61204;49.980;8.358;2024-02-16T12:44:04;3.50;;;1.98;;
72275;SDS011;61204;49.980;8.358;2024-02-16T12:46:31;4.40;;;2.10;;
72275;SDS011;61204;49.980;8.358;2024-02-16T12:48:57;3.47;;;1.80;;
72275;SDS011;61204;49.980;8.358;2024-02-16T12:51:23;6.15;;;2.63;;
72275;SDS011;61204;49.980;8.358;2024-02-16T12:53:48;3.13;;;1.52;;
72275;SDS011;61204;49.980;8.358;2024-02-16T12:56:14;5.30;;;1.90;;
72275;SDS011;61204;49.980;8.358;2024-02-16T12:58:40;5.57;;;1.80;;
72275;SDS011;61204;49.980;8.358;2024-02-16T13:01:06;3.60;;;1.88;;
72275;SDS011;61204;49.980;8.358;2024-02-16T13:03:35;7.70;;;2.50;;
72275;SDS011;61204;49.980;8.358;2024-02-16T13:06:04;4.10;;;2.10;;
72275;SDS011;61204;49.980;8.358;2024-02-16T13:08:30;4.32;;;2.47;;
72275;SDS011;61204;49.980;8.358;2024-02-16T13:10:57;4.00;;;2.13;;
72275;SDS011;61204;49.980;8.358;2024-02-16T13:13:23;1.95;;;1.40;;
72275;SDS011;61204;49.980;8.358;2024-02-16T13:15:49;6.22;;;2.10;;
72275;SDS011;61204;49.980;8.358;2024-02-16T13:18:15;4.95;;;2.10;;
72275;SDS011;61204;49.980;8.358;2024-02-16T13:20:42;4.28;;;1.63;;
72275;SDS011;61204;49.980;8.358;2024-02-16T13:23:09;6.15;;;1.90;;
72275;SDS011;61204;49.980;8.358;2024-02-16T13:25:35;3.92;;;1.63;;
72275;SDS011;61204;49.980;8.358;2024-02-16T13:28:01;5.15;;;1.58;;
72275;SDS011;61204;49.980;8.358;2024-02-16T13:30:30;3.15;;;1.40;;
72275;SDS011;61204;49.980;8.358;2024-02-16T13:32:56;3.67;;;1.38;;
72275;SDS011;61204;49.980;8.358;2024-02-16T13:35:22;3.53;;;1.42;;
72275;SDS011;61204;49.980;8.358;2024-02-16T13:37:48;3.83;;;1.42;;
72275;SDS011;61204;49.980;8.358;2024-02-16T13:40:15;5.18;;;1.65;;
72275;SDS011;61204;49.980;8.358;2024-02-16T13:42:42;3.25;;;1.95;;
72275;SDS011;61204;49.980;8.358;2024-02-16T13:45:08;5.88;;;1.80;;
72275;SDS011;61204;49.980;8.358;2024-02-16T13:47:36;4.72;;;1.83;;
72275;SDS011;61204;49.980;8.358;2024-02-16T13:50:05;5.57;;;2.25;;
72275;SDS011;61204;49.980;8.358;2024-02-16T13:52:34;2.80;;;1.55;;
72275;SDS011;61204;49.980;8.358;2024-02-16T13:55:00;5.32;;;1.50;;
72275;SDS011;61204;49.980;8.358;2024-02-16T13:57:26;5.93;;;1.88;;
72275;SDS011;61204;49.980;8.358;2024-02-16T13:59:54;6.40;;;1.60;;
72275;SDS011;61204;49.980;8.358;2024-02-16T14:02:20;4.40;;;1.73;;
72275;SDS011;61204;49.980;8.358;2024-02-16T14:04:49;4.15;;;1.55;;
72275;SDS011;61204;49.980;8.358;2024-02-16T14:07:16;5.70;;;1.67;;
72275;SDS011;61204;49.980;8.358;2024-02-16T14:09:47;6.28;;;1.60;;
72275;SDS011;61204;49.980;8.358;2024-02-16T14:12:12;3.65;;;1.50;;
72275;SDS011;61204;49.980;8.358;2024-02-16T14:14:38;3.38;;;1.45;;
72275;SDS011;61204;49.980;8.358;2024-02-16T14:17:08;5.07;;;1.85;;
72275;SDS011;61204;49.980;8.358;2024-02-16T14:19:34;4.40;;;1.50;;
72275;SDS011;61204;49.980;8.358;2024-02-16T14:22:02;6.32;;;2.00;;
72275;SDS011;61204;49.980;8.358;2024-02-16T14:27:03;6.30;;;2.10;;
72275;SDS011;61204;49.980;8.358;2024-02-16T14:29:32;6.93;;;1.80;;
72275;SDS011;61204;49.980;8.358;2024-02-16T14:31:57;4.13;;;1.95;;
72275;SDS011;61204;49.980;8.358;2024-02-16T14:34:23;5.70;;;1.77;;
72275;SDS011;61204;49.980;8.358;2024-02-16T14:36:49;4.38;;;1.95;;
72275;SDS011;61204;49.980;8.358;2024-02-16T14:39:14;4.38;;;1.90;;
72275;SDS011;61204;49.980;8.358;2024-02-16T14:41:42;4.55;;;1.90;;
72275;SDS011;61204;49.980;8.358;2024-02-16T14:44:08;5.35;;;1.83;;
72275;SDS011;61204;49.980;8.358;2024-02-16T14:46:35;6.20;;;1.80;;
72275;SDS011;61204;49.980;8.358;2024-02-16T14:49:03;5.18;;;1.60;;
72275;SDS011;61204;49.980;8.358;2024-02-16T14:51:33;5.40;;;2.78;;
72275;SDS011;61204;49.980;8.358;2024-02-16T14:54:00;4.82;;;2.47;;
72275;SDS011;61204;49.980;8.358;2024-02-16T14:56:25;6.25;;;1.67;;
72275;SDS011;61204;49.980;8.358;2024-02-16T14:58:54;3.78;;;1.73;;
72275;SDS011;61204;49.980;8.358;2024-02-16T15:01:19;4.47;;;1.83;;
72275;SDS011;61204;49.980;8.358;2024-02-16T15:03:47;3.05;;;1.70;;